Lanagan, MO (64847)

10:16 AM CDT on May 28, 2017 (GMT -0500)
Brush Creek | | Change Station
Active Advisory: Flood Warning

Elev 1056 ft 36.51 °N, 94.34 °W | Updated 8 seconds ago

Partly Cloudy
Partly Cloudy
68.5 °F
Feels Like 68.5 °F
N
5.1
Wind Variable Wind from West
Gusts 7.4 mph

Today
High -- | Low -- °F
--% Chance of Precip.
Yesterday
High -- | Low -- °F
Precip. -- in
Pressure 30.00 in
Visibility 10.0 miles
Clouds Scattered Clouds 1300 ft
Scattered Clouds 1900 ft
Mostly Cloudy 2800 ft
Dew Point 63 °F
Humidity 81%
Rainfall 0.07 in
Snow Depth Not available.
6:02 AM 8:28 PM
Waxing Crescent, 12% visible
METAR KGMJ 281455Z AUTO 00000KT 10SM SCT013 SCT019 BKN028 20/17 A3000 RMK AO2
Pressure 30.00 in
Visibility 10.0 miles
Clouds Scattered Clouds 1300 ft
Scattered Clouds 1900 ft
Mostly Cloudy 2800 ft
Dew Point 63 °F
Humidity 81%
Rainfall 0.07 in
Snow Depth Not available.
6:02 AM 8:28 PM
Waxing Crescent, 12% visible
METAR KGMJ 281455Z AUTO 00000KT 10SM SCT013 SCT019 BKN028 20/17 A3000 RMK AO2

Get Your Daily Forecast Email!

Thanks for signing up!

Be on the lookout for a verification email in your inbox.

You'll start receiving severe weather alerts in your inbox..

×

10-Day Weather Forecast

Almanac

Astronomy

May. 28, 2017 Rise Set
Actual Time
Civil Twilight
Nautical Twilight
Astronomical Twilight
Moon
Length of Visible Light
Length of Day
Tomorrow will be .
, % of the Moon is Illuminated

Today's Extremes

State Highs State Lows

Community

WunderPhotos

Category 6

Welcome to Category 6. This is the collective home for Weather Underground's featured writeups by Dr. Jeff Masters (right), Bob Henson (left), Chris Burt, and other regular contributors.

Nearby

Air Quality

  Air Quality AQ Index Pollutant
Not available.

Snow Depth

Station Depth Elevation

Earthquake Activity

City Distance Mag. Time & Date
Minimum magnitude displayed is 2.5.

Coastal Water Temperatures

Place Temperature

Stations

Nearby Weather Stations

Station Location Temp. Windchill Dew Point Humidity Wind Precip. Elev Updated Type
                   

Watches & Warnings

Flood Warning
Issued: 10:12 AM CDT May. 28, 2017 – National Weather Service

... The Flood Warning will expire at 1015 am CDT for Christian...
Taney... stone... McDonald... Barry and Greene counties...

Flood waters have receded, and are no longer expected to pose a
threat to life or property. However stream levels may remain higher
than normal and a few low water crossings may remain flooded. Please
continue to heed any Road closures.

Lat... Lon 3650 9460 3676 9461 3675 9407 3693 9406
      3692 9362 3742 9361 3742 9308 3709 9307
      3708 9291 3681 9291 3680 9277 3650 9278


Foster